sensor_id;sensor_type;location;lat;lon;timestamp;P1;durP1;ratioP1;P2;durP2;ratioP2
39822;SDS011;25499;53.958;10.970;2024-03-06T06:40:47;18.17;;;12.52;;
39822;SDS011;25499;53.958;10.970;2024-03-06T06:43:14;15.02;;;11.82;;
39822;SDS011;25499;53.958;10.970;2024-03-06T06:45:41;14.90;;;10.82;;
39822;SDS011;25499;53.958;10.970;2024-03-06T06:51:23;13.98;;;10.10;;
39822;SDS011;25499;53.958;10.970;2024-03-06T06:53:50;15.25;;;10.30;;
39822;SDS011;25499;53.958;10.970;2024-03-06T06:56:18;13.35;;;9.43;;
39822;SDS011;25499;53.958;10.970;2024-03-06T07:02:08;16.20;;;9.73;;
39822;SDS011;25499;53.958;10.970;2024-03-06T07:04:35;12.88;;;9.13;;
39822;SDS011;25499;53.958;10.970;2024-03-06T07:07:03;14.43;;;9.55;;
39822;SDS011;25499;53.958;10.970;2024-03-06T07:09:33;14.38;;;9.90;;
39822;SDS011;25499;53.958;10.970;2024-03-06T07:12:01;23.80;;;16.20;;
39822;SDS011;25499;53.958;10.970;2024-03-06T07:14:29;15.95;;;9.85;;
39822;SDS011;25499;53.958;10.970;2024-03-06T07:16:56;16.92;;;11.55;;
39822;SDS011;25499;53.958;10.970;2024-03-06T07:19:22;15.45;;;11.40;;
39822;SDS011;25499;53.958;10.970;2024-03-06T07:21:50;16.58;;;12.23;;
39822;SDS011;25499;53.958;10.970;2024-03-06T07:24:17;15.32;;;10.88;;
39822;SDS011;25499;53.958;10.970;2024-03-06T07:26:44;13.50;;;10.13;;
39822;SDS011;25499;53.958;10.970;2024-03-06T07:29:12;14.10;;;8.38;;
39822;SDS011;25499;53.958;10.970;2024-03-06T07:31:40;14.00;;;8.00;;
39822;SDS011;25499;53.958;10.970;2024-03-06T07:34:07;10.60;;;7.18;;
39822;SDS011;25499;53.958;10.970;2024-03-06T07:36:34;10.00;;;7.70;;
39822;SDS011;25499;53.958;10.970;2024-03-06T07:39:01;10.30;;;7.35;;
39822;SDS011;25499;53.958;10.970;2024-03-06T07:41:29;9.32;;;7.03;;
39822;SDS011;25499;53.958;10.970;2024-03-06T07:46:47;10.93;;;7.35;;
39822;SDS011;25499;53.958;10.970;2024-03-06T07:49:14;10.13;;;7.22;;
39822;SDS011;25499;53.958;10.970;2024-03-06T07:51:48;9.50;;;7.30;;
39822;SDS011;25499;53.958;10.970;2024-03-06T07:54:19;10.68;;;7.43;;
39822;SDS011;25499;53.958;10.970;2024-03-06T07:56:59;8.50;;;6.78;;
39822;SDS011;25499;53.958;10.970;2024-03-06T07:59:28;9.98;;;6.93;;
39822;SDS011;25499;53.958;10.970;2024-03-06T08:01:54;10.75;;;7.57;;
39822;SDS011;25499;53.958;10.970;2024-03-06T08:04:21;10.05;;;7.13;;
39822;SDS011;25499;53.958;10.970;2024-03-06T08:06:48;9.93;;;7.15;;
39822;SDS011;25499;53.958;10.970;2024-03-06T08:12:28;9.18;;;7.15;;
39822;SDS011;25499;53.958;10.970;2024-03-06T08:14:56;11.57;;;6.88;;
39822;SDS011;25499;53.958;10.970;2024-03-06T08:17:24;9.45;;;6.50;;
39822;SDS011;25499;53.958;10.970;2024-03-06T08:19:51;11.20;;;7.50;;
39822;SDS011;25499;53.958;10.970;2024-03-06T08:22:17;9.05;;;6.80;;
39822;SDS011;25499;53.958;10.970;2024-03-06T08:24:44;9.65;;;7.03;;
39822;SDS011;25499;53.958;10.970;2024-03-06T08:27:11;11.68;;;6.95;;
39822;SDS011;25499;53.958;10.970;2024-03-06T08:29:38;11.30;;;7.25;;
39822;SDS011;25499;53.958;10.970;2024-03-06T08:32:06;10.32;;;7.15;;
39822;SDS011;25499;53.958;10.970;2024-03-06T08:34:34;9.50;;;6.93;;
39822;SDS011;25499;53.958;10.970;2024-03-06T08:37:04;9.40;;;7.03;;
39822;SDS011;25499;53.958;10.970;2024-03-06T08:39:31;10.07;;;6.80;;
39822;SDS011;25499;53.958;10.970;2024-03-06T08:42:05;9.82;;;7.30;;
39822;SDS011;25499;53.958;10.970;2024-03-06T08:44:33;9.02;;;6.38;;
39822;SDS011;25499;53.958;10.970;2024-03-06T08:47:00;8.23;;;5.72;;
39822;SDS011;25499;53.958;10.970;2024-03-06T08:49:30;7.82;;;5.70;;
39822;SDS011;25499;53.958;10.970;2024-03-06T08:51:57;7.55;;;5.40;;
39822;SDS011;25499;53.958;10.970;2024-03-06T08:54:25;8.00;;;5.72;;
39822;SDS011;25499;53.958;10.970;2024-03-06T08:56:52;9.05;;;5.80;;
39822;SDS011;25499;53.958;10.970;2024-03-06T09:01:51;9.15;;;5.68;;
39822;SDS011;25499;53.958;10.970;2024-03-06T09:04:21;8.98;;;6.00;;
39822;SDS011;25499;53.958;10.970;2024-03-06T09:06:50;8.18;;;5.72;;
39822;SDS011;25499;53.958;10.970;2024-03-06T09:09:18;8.65;;;5.55;;
39822;SDS011;25499;53.958;10.970;2024-03-06T09:14:25;8.48;;;5.40;;
39822;SDS011;25499;53.958;10.970;2024-03-06T09:16:52;7.55;;;5.63;;
39822;SDS011;25499;53.958;10.970;2024-03-06T09:19:20;7.88;;;5.40;;
39822;SDS011;25499;53.958;10.970;2024-03-06T09:21:50;6.88;;;5.25;;
39822;SDS011;25499;53.958;10.970;2024-03-06T09:24:17;9.35;;;5.65;;
39822;SDS011;25499;53.958;10.970;2024-03-06T09:26:44;20.67;;;14.40;;
39822;SDS011;25499;53.958;10.970;2024-03-06T09:29:10;7.07;;;5.20;;
39822;SDS011;25499;53.958;10.970;2024-03-06T09:31:37;7.80;;;6.07;;
39822;SDS011;25499;53.958;10.970;2024-03-06T09:34:04;8.02;;;5.80;;
39822;SDS011;25499;53.958;10.970;2024-03-06T09:36:31;7.50;;;5.95;;
39822;SDS011;25499;53.958;10.970;2024-03-06T09:38:59;8.40;;;5.82;;
39822;SDS011;25499;53.958;10.970;2024-03-06T09:41:26;8.25;;;5.95;;
39822;SDS011;25499;53.958;10.970;2024-03-06T09:43:53;6.85;;;5.45;;
39822;SDS011;25499;53.958;10.970;2024-03-06T09:46:20;6.40;;;5.10;;
39822;SDS011;25499;53.958;10.970;2024-03-06T09:48:49;8.05;;;5.88;;
39822;SDS011;25499;53.958;10.970;2024-03-06T09:51:17;6.53;;;5.28;;
39822;SDS011;25499;53.958;10.970;2024-03-06T09:53:46;7.40;;;5.15;;
39822;SDS011;25499;53.958;10.970;2024-03-06T09:56:16;7.25;;;5.57;;
39822;SDS011;25499;53.958;10.970;2024-03-06T09:58:44;6.20;;;5.10;;
39822;SDS011;25499;53.958;10.970;2024-03-06T10:01:12;7.68;;;5.70;;
39822;SDS011;25499;53.958;10.970;2024-03-06T10:03:41;9.52;;;5.47;;
39822;SDS011;25499;53.958;10.970;2024-03-06T10:06:08;8.35;;;6.00;;
39822;SDS011;25499;53.958;10.970;2024-03-06T10:08:35;7.57;;;5.75;;
39822;SDS011;25499;53.958;10.970;2024-03-06T10:11:03;8.93;;;6.10;;
39822;SDS011;25499;53.958;10.970;2024-03-06T10:13:32;7.28;;;5.65;;
39822;SDS011;25499;53.958;10.970;2024-03-06T10:16:00;8.98;;;6.40;;
39822;SDS011;25499;53.958;10.970;2024-03-06T10:23:26;6.97;;;5.35;;
39822;SDS011;25499;53.958;10.970;2024-03-06T10:25:54;8.05;;;5.78;;
39822;SDS011;25499;53.958;10.970;2024-03-06T10:28:21;7.35;;;5.43;;
39822;SDS011;25499;53.958;10.970;2024-03-06T10:30:50;8.57;;;5.38;;
39822;SDS011;25499;53.958;10.970;2024-03-06T10:33:18;9.38;;;6.45;;
39822;SDS011;25499;53.958;10.970;2024-03-06T10:35:45;8.40;;;6.57;;
39822;SDS011;25499;53.958;10.970;2024-03-06T10:38:13;8.68;;;6.05;;
39822;SDS011;25499;53.958;10.970;2024-03-06T10:40:42;8.80;;;6.30;;
39822;SDS011;25499;53.958;10.970;2024-03-06T10:43:10;9.90;;;6.72;;
39822;SDS011;25499;53.958;10.970;2024-03-06T10:45:41;9.38;;;6.38;;
39822;SDS011;25499;53.958;10.970;2024-03-06T10:48:14;10.95;;;6.97;;
39822;SDS011;25499;53.958;10.970;2024-03-06T10:50:42;7.85;;;6.25;;
39822;SDS011;25499;53.958;10.970;2024-03-06T10:53:10;8.38;;;6.13;;
39822;SDS011;25499;53.958;10.970;2024-03-06T10:58:59;8.50;;;6.20;;
39822;SDS011;25499;53.958;10.970;2024-03-06T11:01:27;8.30;;;6.28;;
39822;SDS011;25499;53.958;10.970;2024-03-06T11:03:59;9.27;;;6.32;;
39822;SDS011;25499;53.958;10.970;2024-03-06T11:06:27;8.95;;;6.97;;
39822;SDS011;25499;53.958;10.970;2024-03-06T11:08:54;11.80;;;8.13;;
39822;SDS011;25499;53.958;10.970;2024-03-06T11:11:21;10.40;;;7.80;;
39822;SDS011;25499;53.958;10.970;2024-03-06T11:13:49;10.60;;;7.05;;
39822;SDS011;25499;53.958;10.970;2024-03-06T11:16:26;9.88;;;6.50;;
39822;SDS011;25499;53.958;10.970;2024-03-06T11:19:05;8.57;;;6.47;;
39822;SDS011;25499;53.958;10.970;2024-03-06T11:21:33;9.75;;;6.07;;
39822;SDS011;25499;53.958;10.970;2024-03-06T11:27:02;9.93;;;7.22;;
39822;SDS011;25499;53.958;10.970;2024-03-06T11:32:36;11.40;;;7.30;;
39822;SDS011;25499;53.958;10.970;2024-03-06T11:35:05;8.80;;;6.97;;
39822;SDS011;25499;53.958;10.970;2024-03-06T11:37:34;7.38;;;6.15;;
39822;SDS011;25499;53.958;10.970;2024-03-06T11:40:01;7.75;;;5.95;;
39822;SDS011;25499;53.958;10.970;2024-03-06T11:42:33;8.57;;;6.55;;
39822;SDS011;25499;53.958;10.970;2024-03-06T11:45:13;9.23;;;6.95;;
39822;SDS011;25499;53.958;10.970;2024-03-06T11:47:58;10.43;;;6.50;;
39822;SDS011;25499;53.958;10.970;2024-03-06T11:50:28;8.25;;;6.30;;
39822;SDS011;25499;53.958;10.970;2024-03-06T11:55:23;9.40;;;6.68;;
39822;SDS011;25499;53.958;10.970;2024-03-06T11:57:51;7.82;;;6.10;;
39822;SDS011;25499;53.958;10.970;2024-03-06T12:00:21;8.90;;;6.47;;
39822;SDS011;25499;53.958;10.970;2024-03-06T12:02:48;10.93;;;7.60;;
39822;SDS011;25499;53.958;10.970;2024-03-06T12:05:16;11.13;;;7.63;;
39822;SDS011;25499;53.958;10.970;2024-03-06T12:07:48;9.73;;;7.30;;
39822;SDS011;25499;53.958;10.970;2024-03-06T12:10:16;10.82;;;8.23;;
39822;SDS011;25499;53.958;10.970;2024-03-06T12:12:44;11.13;;;7.70;;
39822;SDS011;25499;53.958;10.970;2024-03-06T12:15:11;8.50;;;6.28;;
39822;SDS011;25499;53.958;10.970;2024-03-06T12:17:42;7.97;;;6.30;;
39822;SDS011;25499;53.958;10.970;2024-03-06T12:20:11;9.77;;;6.97;;
39822;SDS011;25499;53.958;10.970;2024-03-06T12:22:44;10.20;;;7.88;;
39822;SDS011;25499;53.958;10.970;2024-03-06T12:25:18;9.88;;;7.53;;
39822;SDS011;25499;53.958;10.970;2024-03-06T12:27:46;10.32;;;8.10;;
39822;SDS011;25499;53.958;10.970;2024-03-06T12:30:16;10.93;;;7.65;;
39822;SDS011;25499;53.958;10.970;2024-03-06T12:32:43;11.15;;;7.90;;
39822;SDS011;25499;53.958;10.970;2024-03-06T12:35:10;10.98;;;7.60;;
39822;SDS011;25499;53.958;10.970;2024-03-06T12:37:37;11.10;;;8.13;;
39822;SDS011;25499;53.958;10.970;2024-03-06T12:40:04;10.02;;;8.20;;
39822;SDS011;25499;53.958;10.970;2024-03-06T12:42:34;11.15;;;8.20;;
39822;SDS011;25499;53.958;10.970;2024-03-06T12:45:02;11.30;;;8.32;;
39822;SDS011;25499;53.958;10.970;2024-03-06T12:47:31;10.38;;;7.93;;
39822;SDS011;25499;53.958;10.970;2024-03-06T12:49:58;10.57;;;8.43;;
39822;SDS011;25499;53.958;10.970;2024-03-06T12:52:25;10.52;;;8.18;;
39822;SDS011;25499;53.958;10.970;2024-03-06T12:54:52;10.80;;;8.43;;
39822;SDS011;25499;53.958;10.970;2024-03-06T12:57:19;13.00;;;8.20;;
39822;SDS011;25499;53.958;10.970;2024-03-06T12:59:47;10.65;;;8.80;;
39822;SDS011;25499;53.958;10.970;2024-03-06T13:02:14;10.02;;;7.63;;
39822;SDS011;25499;53.958;10.970;2024-03-06T13:04:42;10.73;;;8.35;;
39822;SDS011;25499;53.958;10.970;2024-03-06T13:07:08;11.13;;;8.43;;
39822;SDS011;25499;53.958;10.970;2024-03-06T13:09:36;12.20;;;8.85;;
39822;SDS011;25499;53.958;10.970;2024-03-06T13:12:03;9.50;;;7.75;;
39822;SDS011;25499;53.958;10.970;2024-03-06T13:14:31;10.85;;;7.78;;
39822;SDS011;25499;53.958;10.970;2024-03-06T13:16:59;10.20;;;7.75;;
39822;SDS011;25499;53.958;10.970;2024-03-06T13:19:27;10.52;;;7.85;;
39822;SDS011;25499;53.958;10.970;2024-03-06T13:21:54;9.52;;;7.40;;
39822;SDS011;25499;53.958;10.970;2024-03-06T13:24:22;9.38;;;7.15;;
39822;SDS011;25499;53.958;10.970;2024-03-06T13:26:49;10.80;;;8.07;;
39822;SDS011;25499;53.958;10.970;2024-03-06T13:29:16;9.52;;;7.60;;
39822;SDS011;25499;53.958;10.970;2024-03-06T13:31:44;10.23;;;7.55;;
39822;SDS011;25499;53.958;10.970;2024-03-06T13:34:14;9.13;;;7.32;;
39822;SDS011;25499;53.958;10.970;2024-03-06T13:36:42;10.63;;;7.75;;
39822;SDS011;25499;53.958;10.970;2024-03-06T13:39:09;9.07;;;6.28;;
39822;SDS011;25499;53.958;10.970;2024-03-06T13:41:36;7.93;;;6.35;;
39822;SDS011;25499;53.958;10.970;2024-03-06T13:44:02;7.97;;;6.25;;
39822;SDS011;25499;53.958;10.970;2024-03-06T13:46:29;7.85;;;6.40;;
39822;SDS011;25499;53.958;10.970;2024-03-06T13:48:56;8.82;;;6.95;;
39822;SDS011;25499;53.958;10.970;2024-03-06T13:51:24;8.65;;;6.80;;
39822;SDS011;25499;53.958;10.970;2024-03-06T13:53:51;7.60;;;6.05;;
39822;SDS011;25499;53.958;10.970;2024-03-06T13:56:17;7.43;;;6.32;;
39822;SDS011;25499;53.958;10.970;2024-03-06T13:58:44;7.85;;;6.38;;
39822;SDS011;25499;53.958;10.970;2024-03-06T14:01:11;7.30;;;5.97;;
39822;SDS011;25499;53.958;10.970;2024-03-06T14:03:38;8.52;;;6.45;;
39822;SDS011;25499;53.958;10.970;2024-03-06T14:06:05;8.60;;;6.05;;
39822;SDS011;25499;53.958;10.970;2024-03-06T14:08:36;8.52;;;6.45;;
39822;SDS011;25499;53.958;10.970;2024-03-06T14:11:04;6.88;;;6.13;;
39822;SDS011;25499;53.958;10.970;2024-03-06T14:13:32;7.30;;;6.00;;
39822;SDS011;25499;53.958;10.970;2024-03-06T14:15:59;7.75;;;6.13;;
39822;SDS011;25499;53.958;10.970;2024-03-06T14:18:26;7.10;;;5.65;;
39822;SDS011;25499;53.958;10.970;2024-03-06T14:20:53;8.23;;;5.40;;
39822;SDS011;25499;53.958;10.970;2024-03-06T14:23:21;7.88;;;6.20;;
39822;SDS011;25499;53.958;10.970;2024-03-06T14:25:49;8.93;;;6.10;;
39822;SDS011;25499;53.958;10.970;2024-03-06T14:28:17;8.20;;;6.15;;
39822;SDS011;25499;53.958;10.970;2024-03-06T14:30:44;12.05;;;5.70;;
39822;SDS011;25499;53.958;10.970;2024-03-06T14:33:10;8.07;;;5.78;;
39822;SDS011;25499;53.958;10.970;2024-03-06T14:35:37;8.07;;;6.35;;
39822;SDS011;25499;53.958;10.970;2024-03-06T14:38:04;7.32;;;6.15;;
39822;SDS011;25499;53.958;10.970;2024-03-06T14:40:31;9.65;;;6.50;;
39822;SDS011;25499;53.958;10.970;2024-03-06T14:43:00;9.15;;;6.60;;
39822;SDS011;25499;53.958;10.970;2024-03-06T14:45:27;10.43;;;6.78;;
39822;SDS011;25499;53.958;10.970;2024-03-06T14:47:54;8.80;;;6.32;;
39822;SDS011;25499;53.958;10.970;2024-03-06T14:50:21;9.43;;;6.13;;
39822;SDS011;25499;53.958;10.970;2024-03-06T14:52:48;8.90;;;6.47;;
39822;SDS011;25499;53.958;10.970;2024-03-06T14:55:15;8.27;;;6.57;;
39822;SDS011;25499;53.958;10.970;2024-03-06T14:57:42;8.70;;;6.22;;
39822;SDS011;25499;53.958;10.970;2024-03-06T15:00:12;9.57;;;5.70;;
39822;SDS011;25499;53.958;10.970;2024-03-06T15:02:43;7.57;;;5.93;;
39822;SDS011;25499;53.958;10.970;2024-03-06T15:05:10;14.07;;;7.25;;
39822;SDS011;25499;53.958;10.970;2024-03-06T15:07:38;11.35;;;7.55;;
39822;SDS011;25499;53.958;10.970;2024-03-06T15:10:05;9.05;;;6.70;;
39822;SDS011;25499;53.958;10.970;2024-03-06T15:12:33;8.85;;;6.30;;
39822;SDS011;25499;53.958;10.970;2024-03-06T15:15:01;7.65;;;6.43;;
39822;SDS011;25499;53.958;10.970;2024-03-06T15:17:32;7.35;;;6.40;;
39822;SDS011;25499;53.958;10.970;2024-03-06T15:20:03;9.75;;;7.25;;
39822;SDS011;25499;53.958;10.970;2024-03-06T15:22:34;9.65;;;7.07;;
39822;SDS011;25499;53.958;10.970;2024-03-06T15:28:31;10.18;;;7.63;;
39822;SDS011;25499;53.958;10.970;2024-03-06T15:30:58;7.90;;;6.75;;
39822;SDS011;25499;53.958;10.970;2024-03-06T15:33:31;8.98;;;6.78;;
39822;SDS011;25499;53.958;10.970;2024-03-06T15:35:58;8.55;;;7.15;;
39822;SDS011;25499;53.958;10.970;2024-03-06T15:38:26;8.30;;;6.22;;
39822;SDS011;25499;53.958;10.970;2024-03-06T15:40:54;12.75;;;8.85;;
39822;SDS011;25499;53.958;10.970;2024-03-06T15:43:21;15.82;;;10.00;;
39822;SDS011;25499;53.958;10.970;2024-03-06T15:45:48;13.85;;;10.07;;
39822;SDS011;25499;53.958;10.970;2024-03-06T15:48:15;13.40;;;9.93;;
39822;SDS011;25499;53.958;10.970;2024-03-06T15:50:45;14.23;;;8.75;;
39822;SDS011;25499;53.958;10.970;2024-03-06T15:53:14;12.57;;;9.75;;
39822;SDS011;25499;53.958;10.970;2024-03-06T15:55:44;13.63;;;9.15;;
39822;SDS011;25499;53.958;10.970;2024-03-06T15:58:21;13.55;;;10.07;;
39822;SDS011;25499;53.958;10.970;2024-03-06T16:00:53;14.35;;;11.13;;
39822;SDS011;25499;53.958;10.970;2024-03-06T16:03:23;15.47;;;11.00;;
39822;SDS011;25499;53.958;10.970;2024-03-06T16:05:53;17.20;;;11.13;;
39822;SDS011;25499;53.958;10.970;2024-03-06T16:08:22;13.63;;;9.95;;
39822;SDS011;25499;53.958;10.970;2024-03-06T16:10:55;17.00;;;10.48;;
39822;SDS011;25499;53.958;10.970;2024-03-06T16:13:24;14.77;;;9.18;;
39822;SDS011;25499;53.958;10.970;2024-03-06T16:15:51;13.65;;;10.13;;
39822;SDS011;25499;53.958;10.970;2024-03-06T16:18:20;11.90;;;8.77;;
39822;SDS011;25499;53.958;10.970;2024-03-06T16:20:48;12.93;;;9.10;;
39822;SDS011;25499;53.958;10.970;2024-03-06T16:23:17;15.43;;;9.98;;
39822;SDS011;25499;53.958;10.970;2024-03-06T16:25:44;14.45;;;9.50;;
39822;SDS011;25499;53.958;10.970;2024-03-06T16:28:13;13.07;;;8.60;;
39822;SDS011;25499;53.958;10.970;2024-03-06T16:30:40;10.50;;;7.85;;
39822;SDS011;25499;53.958;10.970;2024-03-06T16:33:07;14.63;;;8.05;;
39822;SDS011;25499;53.958;10.970;2024-03-06T16:35:34;14.45;;;9.50;;
39822;SDS011;25499;53.958;10.970;2024-03-06T16:38:01;11.00;;;7.75;;
39822;SDS011;25499;53.958;10.970;2024-03-06T16:40:29;12.15;;;8.40;;
39822;SDS011;25499;53.958;10.970;2024-03-06T16:42:56;11.45;;;7.85;;
39822;SDS011;25499;53.958;10.970;2024-03-06T16:45:23;13.48;;;8.23;;
39822;SDS011;25499;53.958;10.970;2024-03-06T16:47:53;12.23;;;7.93;;
39822;SDS011;25499;53.958;10.970;2024-03-06T16:50:25;12.60;;;8.15;;
39822;SDS011;25499;53.958;10.970;2024-03-06T16:52:53;11.25;;;7.68;;
39822;SDS011;25499;53.958;10.970;2024-03-06T16:55:21;13.02;;;8.95;;
39822;SDS011;25499;53.958;10.970;2024-03-06T16:57:51;17.38;;;10.05;;
39822;SDS011;25499;53.958;10.970;2024-03-06T17:00:18;14.63;;;8.88;;
39822;SDS011;25499;53.958;10.970;2024-03-06T17:02:48;14.07;;;9.05;;
39822;SDS011;25499;53.958;10.970;2024-03-06T17:05:15;16.88;;;10.85;;
39822;SDS011;25499;53.958;10.970;2024-03-06T17:07:43;18.13;;;11.25;;
39822;SDS011;25499;53.958;10.970;2024-03-06T17:10:11;18.02;;;11.80;;
39822;SDS011;25499;53.958;10.970;2024-03-06T17:12:40;16.30;;;11.57;;
39822;SDS011;25499;53.958;10.970;2024-03-06T17:15:10;20.92;;;13.68;;
39822;SDS011;25499;53.958;10.970;2024-03-06T17:17:38;24.20;;;14.67;;
39822;SDS011;25499;53.958;10.970;2024-03-06T17:20:06;23.70;;;15.77;;
39822;SDS011;25499;53.958;10.970;2024-03-06T17:22:34;29.15;;;15.60;;
39822;SDS011;25499;53.958;10.970;2024-03-06T17:25:02;26.10;;;16.70;;
39822;SDS011;25499;53.958;10.970;2024-03-06T17:27:34;27.70;;;16.50;;
39822;SDS011;25499;53.958;10.970;2024-03-06T17:30:05;26.75;;;17.48;;
39822;SDS011;25499;53.958;10.970;2024-03-06T17:32:37;28.20;;;18.20;;
39822;SDS011;25499;53.958;10.970;2024-03-06T17:35:15;28.70;;;17.98;;
39822;SDS011;25499;53.958;10.970;2024-03-06T17:37:52;28.70;;;17.63;;
39822;SDS011;25499;53.958;10.970;2024-03-06T17:40:31;33.25;;;19.80;;
39822;SDS011;25499;53.958;10.970;2024-03-06T17:43:13;32.15;;;20.17;;
39822;SDS011;25499;53.958;10.970;2024-03-06T17:46:26;36.88;;;21.73;;
39822;SDS011;25499;53.958;10.970;2024-03-06T17:49:13;36.10;;;21.73;;
39822;SDS011;25499;53.958;10.970;2024-03-06T17:51:43;33.90;;;21.80;;
39822;SDS011;25499;53.958;10.970;2024-03-06T17:54:15;34.80;;;21.73;;
39822;SDS011;25499;53.958;10.970;2024-03-06T17:56:42;32.88;;;20.40;;
39822;SDS011;25499;53.958;10.970;2024-03-06T17:59:09;33.92;;;20.20;;
39822;SDS011;25499;53.958;10.970;2024-03-06T18:01:36;37.67;;;21.95;;
39822;SDS011;25499;53.958;10.970;2024-03-06T18:04:03;40.58;;;23.65;;
39822;SDS011;25499;53.958;10.970;2024-03-06T18:06:32;40.08;;;22.77;;
39822;SDS011;25499;53.958;10.970;2024-03-06T18:08:59;39.28;;;23.52;;
39822;SDS011;25499;53.958;10.970;2024-03-06T18:11:26;36.28;;;22.70;;
39822;SDS011;25499;53.958;10.970;2024-03-06T18:13:53;37.00;;;22.52;;
39822;SDS011;25499;53.958;10.970;2024-03-06T18:16:19;40.05;;;23.10;;
39822;SDS011;25499;53.958;10.970;2024-03-06T18:18:46;38.50;;;22.23;;
39822;SDS011;25499;53.958;10.970;2024-03-06T18:21:13;41.38;;;21.67;;
39822;SDS011;25499;53.958;10.970;2024-03-06T18:23:41;39.10;;;23.10;;
39822;SDS011;25499;53.958;10.970;2024-03-06T18:26:08;44.15;;;22.95;;
39822;SDS011;25499;53.958;10.970;2024-03-06T18:28:36;38.83;;;22.67;;
39822;SDS011;25499;53.958;10.970;2024-03-06T18:31:04;43.97;;;23.48;;
39822;SDS011;25499;53.958;10.970;2024-03-06T18:33:32;43.40;;;23.70;;
39822;SDS011;25499;53.958;10.970;2024-03-06T18:35:59;43.60;;;24.35;;
39822;SDS011;25499;53.958;10.970;2024-03-06T18:38:25;45.97;;;23.50;;
39822;SDS011;25499;53.958;10.970;2024-03-06T18:40:54;40.88;;;23.42;;
39822;SDS011;25499;53.958;10.970;2024-03-06T18:43:20;43.25;;;22.25;;
39822;SDS011;25499;53.958;10.970;2024-03-06T18:45:47;44.67;;;23.58;;
39822;SDS011;25499;53.958;10.970;2024-03-06T18:48:14;48.42;;;25.55;;
39822;SDS011;25499;53.958;10.970;2024-03-06T18:50:41;40.75;;;22.15;;
39822;SDS011;25499;53.958;10.970;2024-03-06T18:53:08;41.22;;;21.90;;
39822;SDS011;25499;53.958;10.970;2024-03-06T18:55:35;37.53;;;21.02;;
39822;SDS011;25499;53.958;10.970;2024-03-06T18:58:03;37.40;;;20.90;;
39822;SDS011;25499;53.958;10.970;2024-03-06T19:00:30;35.63;;;20.60;;
39822;SDS011;25499;53.958;10.970;2024-03-06T19:02:58;41.97;;;21.52;;
39822;SDS011;25499;53.958;10.970;2024-03-06T19:05:25;40.17;;;21.60;;
39822;SDS011;25499;53.958;10.970;2024-03-06T19:07:53;38.65;;;20.55;;
39822;SDS011;25499;53.958;10.970;2024-03-06T19:10:20;36.25;;;19.90;;
39822;SDS011;25499;53.958;10.970;2024-03-06T19:12:47;51.60;;;22.63;;
39822;SDS011;25499;53.958;10.970;2024-03-06T19:15:16;45.40;;;21.48;;
39822;SDS011;25499;53.958;10.970;2024-03-06T19:17:44;43.95;;;21.58;;
39822;SDS011;25499;53.958;10.970;2024-03-06T19:20:11;43.15;;;21.17;;
39822;SDS011;25499;53.958;10.970;2024-03-06T19:22:38;45.15;;;22.45;;
39822;SDS011;25499;53.958;10.970;2024-03-06T19:25:06;40.30;;;21.05;;
39822;SDS011;25499;53.958;10.970;2024-03-06T19:27:33;45.58;;;20.73;;
39822;SDS011;25499;53.958;10.970;2024-03-06T19:30:03;48.10;;;21.60;;
39822;SDS011;25499;53.958;10.970;2024-03-06T19:32:32;52.65;;;27.35;;
39822;SDS011;25499;53.958;10.970;2024-03-06T19:34:59;50.80;;;25.38;;
39822;SDS011;25499;53.958;10.970;2024-03-06T19:40:47;47.00;;;20.70;;
39822;SDS011;25499;53.958;10.970;2024-03-06T19:43:14;53.55;;;25.55;;
39822;SDS011;25499;53.958;10.970;2024-03-06T19:45:41;72.63;;;37.38;;
39822;SDS011;25499;53.958;10.970;2024-03-06T19:48:09;67.60;;;29.35;;
39822;SDS011;25499;53.958;10.970;2024-03-06T19:50:36;45.42;;;22.67;;
39822;SDS011;25499;53.958;10.970;2024-03-06T19:56:04;46.40;;;24.65;;
39822;SDS011;25499;53.958;10.970;2024-03-06T19:58:31;41.78;;;22.85;;
39822;SDS011;25499;53.958;10.970;2024-03-06T20:00:58;45.33;;;22.85;;
39822;SDS011;25499;53.958;10.970;2024-03-06T20:03:26;46.05;;;23.33;;
39822;SDS011;25499;53.958;10.970;2024-03-06T20:05:53;45.30;;;20.75;;
39822;SDS011;25499;53.958;10.970;2024-03-06T20:08:20;42.22;;;20.63;;
39822;SDS011;25499;53.958;10.970;2024-03-06T20:10:47;47.72;;;23.20;;
39822;SDS011;25499;53.958;10.970;2024-03-06T20:13:14;47.30;;;23.98;;
39822;SDS011;25499;53.958;10.970;2024-03-06T20:15:40;43.22;;;20.70;;
39822;SDS011;25499;53.958;10.970;2024-03-06T20:18:08;44.40;;;20.88;;
39822;SDS011;25499;53.958;10.970;2024-03-06T20:20:38;53.85;;;24.38;;
39822;SDS011;25499;53.958;10.970;2024-03-06T20:23:05;53.15;;;21.85;;
39822;SDS011;25499;53.958;10.970;2024-03-06T20:25:35;48.58;;;20.17;;
39822;SDS011;25499;53.958;10.970;2024-03-06T20:28:04;43.67;;;20.25;;
39822;SDS011;25499;53.958;10.970;2024-03-06T20:30:32;41.30;;;17.23;;
39822;SDS011;25499;53.958;10.970;2024-03-06T20:33:00;42.47;;;20.17;;
39822;SDS011;25499;53.958;10.970;2024-03-06T20:35:27;48.45;;;19.20;;
39822;SDS011;25499;53.958;10.970;2024-03-06T20:37:55;48.95;;;18.88;;
39822;SDS011;25499;53.958;10.970;2024-03-06T20:40:22;47.05;;;17.98;;
39822;SDS011;25499;53.958;10.970;2024-03-06T20:42:50;45.83;;;17.90;;
39822;SDS011;25499;53.958;10.970;2024-03-06T20:45:17;39.13;;;17.35;;
39822;SDS011;25499;53.958;10.970;2024-03-06T20:47:43;40.88;;;17.13;;
39822;SDS011;25499;53.958;10.970;2024-03-06T20:50:09;34.17;;;16.15;;
39822;SDS011;25499;53.958;10.970;2024-03-06T20:56:05;32.20;;;16.08;;
39822;SDS011;25499;53.958;10.970;2024-03-06T20:58:32;32.33;;;14.98;;
